עמוד ראשי
METAR-TAF:

METAR-TAF

שדות תעופה :

Aniak, אלסקה, ארצות הברית

קו רוחב: 61-34-53N, קו אורך: 159-32-34W, גובה: 27מטר

תצפית מזג אוויר נוכחית

הדו"ח נערך לפני 36דקות, בשעה 18:56 UTC
רוח 8קשר מכיוון מערב/דרום-מערב
טמפרטורת 21 צלסיוס
לחות 53%
לחץ 1015 hPa
ראות: 16.1קילומטר
שמיים נקיים

METAR: PANI 171856Z AUTO 25008KT 10SM CLR 21/11 A2998 RMK AO2 SLP145 T02060106 $

זמן: 11:32 (19:32 UTC)


TAF: חסר

תצפיות ותחזיות מזג אוויר לגבי יותר מ- 4,000 שדות תעופה ברחבי העולם. דוחות METAR ו- TAF.

התחנות הזמינות מסומנות בנקודות צהובות ואדומות על גבי המפה.

העבר את העכבר לנקודה הצבעונית על מנת לראות את שם התחנה.

לאחר מכן, לחץ כדי לראות את תוכן ואת תחזיות מזג האוויר.

כדי לשנות את המפה: לחץ על הכפתורים הירוקים עם הפלוס השחור כדי להתקרב; על הכפתור הירוק עם המקף כדי להתרחק; או בחיצים הירוקים למפות סמוכות.


METAR-TAF: